Souderton, PA

6:23 PM EDT en Octubre 22, 2014 (GMT -0400)
Pottstown Limerick | Change Station
CLOSE
Current Station
Aeropuerto
Location: Pottstown,
Altura: 308 ft
Estaciones meteorológicas cercanas

Alt 308 ft 40.24 °N, 75.55 °W | Updated 29 minutes ago

Nublado
Nublado
53 ° F
Sensación térmica 53 ° F
N
12
Viento Variable Viento desde NNO
Gusts 20 mph

Hoy
Alta -- | Baja -- ° F
--% Posibilidad de precipitaciones
Ayer
Alta -- | Baja -- ° F
Precip. -- pul
7:19 AM 6:11 PM
Creciente menguante, 1% visible
Presión 29.88 pul
Visibilidad 10.0 Millas
Nubes Nublado 3100 ft
Punto de rocío 49 ° F
Humedad 86%
Precipitaciones 0.12 pul
Espesor de la nieve No disponible.
UV 0 de una escala de 12
Polen .30 de una escala de 12
Calidad del aire No disponible.
Flu Activity Sporadic
METAR KPTW 222154Z AUTO 34010G17KT 10SM OVC031 12/09 A2989 RMK AO2 RAB14E37 SLP118 P0000 T01170094

More Conditions Fewer Conditions

Presión 29.88 pul
Visibilidad 10.0 Millas
Nubes Nublado 3100 ft
Punto de rocío 49 ° F
Humedad 86%
Precipitaciones 0.12 pul
Espesor de la nieve No disponible.
UV 0 de una escala de 12
Polen .30 de una escala de 12
Calidad del aire No disponible.
Flu Activity Sporadic
METAR KPTW 222154Z AUTO 34010G17KT 10SM OVC031 12/09 A2989 RMK AO2 RAB14E37 SLP118 P0000 T01170094

More Conditions Fewer Conditions

10-Day Weather Forecast

Almanac

Astronomía

Oct. 22, 2014 Salida Puesta
Hora real 7:19 AM EDT 6:11 PM EDT
Crepúsculo civil 6:51 AM EDT 6:38 PM EDT
Crepúsculo náutico 6:20 AM EDT 7:10 PM EDT
Crepúsculo astronómico 5:48 AM EDT 7:42 PM EDT
Luna 5:58 AM EDT 5:36 PM EDT
Horas de luz 11h 47m
Horas de luz
10h 51m
Tomorrow will be 2m 29s shorter.
Creciente menguante, 1% of the Moon is Illuminated
Hoy
Creciente menguante
Oct 23
Nueva
Oct 30
Cuarto creciente
Nov 6
Luna llena
Nov 14
Cuarto menguante

Extremos de hoy

Máximos del estado Bajos del estado

Community

WunderPhotos

Upload Photos

1,764,064 ¡fotos cargadas!

WunderBlogs® & News

Nearby

Grosos de nieve

Estación Profundido Altura
No tenemos constancia de nieve nueva.

Actividad de terremotos

Ciudad Distance Mag. Tiempo y dato
No hay informes recientes de la actividad sísmica.
Magnitud mínima muestra es 2,5.

Temperaturas de aguas costeras

Lugar Temperatura
Sin partes meteorológicos de las estaciones

Estaciones meteorológicas cercanas